MSSSMSLP

Guest
Details From MSSS - ILOPANGO INTL
To MSLP - El Salvador Intl
Flight Number -
Tags generated
Created
Modified
Stats Distance 16 nm / 29 km
Max Altitude 200 ft / 61 m
Waypoints 3
Social Downloads 0
Likes 0
Share VATSIM

Download

Looking for another format? Having issues loading an existing format? Contact us
Advertisement - Login to hide

Notes

Basic altitude profile: - Ascent Rate: 2500ft/min - Ascent Speed: 250kts - Cruise Altitude: 35000ft - Cruise Speed: 420kts - Descent Rate: 1500ft/min - Descent Speed: 250kts Options: - Use NATs: no - Use PACOTS: no - Use low airways: yes - Use high airways: no

Route

MSSS YSV MSLP

ID Type Via Altitude Latitude Longitude Leg Dist Tot Dist Heading (true) Name
O MSSS APT - 0 ft / 0 m 13.69880˚ -89.11985˚ - 0 nm - ILOPANGO INTL
YSV VOR - 200 ft / 61 m 13.69006˚ -89.11633˚ 0 nm 0 nm 159° / 159° ILOPANGO VOR-DME
O MSLP APT - 0 ft / 0 m 13.44567˚ -89.05174˚ 15 nm 15 nm 166° / 166° El Salvador Intl

Altitude Profile

Advertisement - Login to hide

MSSS

Details ICAO MSSS
Name ILOPANGO INTL
Region El Salvador
Timezone America/El_Salvador (UTC-6.0)
Stats Elevation 2,020 ft / 616 m (AMSL)
Location 13.698802° -89.119849°
Runways 1
Magnetic Variation 0.450° E

METAR

MSSS 150350Z 00000KT CAVOK 21/19 Q1016 A3001

Decode

TAF

Not found

Departure Runways

ID Width Length Bearing (true) Bearing (mag) Surface Threshold Offset Overrun Length
15 148 ft / 45 m 7,350 ft / 2,240 m 153.66° 153.21° Asphalt 0 ft / 0 m 0 ft / 0 m
33 148 ft / 45 m 7,350 ft / 2,240 m 333.66° 333.21° Asphalt 0 ft / 0 m 0 ft / 0 m

MSLP

Details ICAO MSLP (SAL)
Name El Salvador Intl
Region El Salvador
Timezone America/El_Salvador (UTC-6.0)
Stats Elevation 101 ft / 31 m (AMSL)
Location 13.445666° -89.051739°
Runways 2
Magnetic Variation 0.451° E

METAR

MSLP 150350Z 36004KT CAVOK 32/20 Q1012 A2990 NOSIG

Decode

TAF

Not found

Destination Runways

ID Width Length Bearing (true) Bearing (mag) Surface Threshold Offset Overrun Length
07 148 ft / 45 m 10,507 ft / 3,202 m 69.86° 69.41° Asphalt 0 ft / 0 m 200 ft / 61 m
18 75 ft / 23 m 2,639 ft / 804 m 180.00° 179.55° Asphalt 0 ft / 0 m 120 ft / 37 m
25 148 ft / 45 m 10,507 ft / 3,202 m 249.87° 249.42° Asphalt 0 ft / 0 m 200 ft / 61 m
36 75 ft / 23 m 2,639 ft / 804 m 0.00° 359.55° Asphalt 0 ft / 0 m 120 ft / 37 m

Approach Navaids

Runway Type Ident Frequency Range Bearing (true) Bearing (mag) Slope Elevation
07 Localiser CUS 110.30 MHz 18 nm / 33 km 69.76° 69.31° - 71 ft / 22 m (AMSL)
07 Glidescope CUS 110.30 MHz 10 nm / 19 km 69.87° 69.41° 2.50° 78 ft / 24 m (AMSL)

Popular Alternatives